sensor_id;sensor_type;location;lat;lon;timestamp;P1;durP1;ratioP1;P2;durP2;ratioP2
7049;SDS011;22263;52.260;10.548;2022-10-17T00:01:20;4.57;;;2.40;;
7049;SDS011;22263;52.260;10.548;2022-10-17T00:03:48;3.15;;;2.30;;
7049;SDS011;22263;52.260;10.548;2022-10-17T00:06:17;3.22;;;2.45;;
7049;SDS011;22263;52.260;10.548;2022-10-17T00:08:45;4.43;;;2.60;;
7049;SDS011;22263;52.260;10.548;2022-10-17T00:11:15;3.75;;;2.45;;
7049;SDS011;22263;52.260;10.548;2022-10-17T00:13:45;2.72;;;2.40;;
7049;SDS011;22263;52.260;10.548;2022-10-17T00:16:18;7.00;;;2.47;;
7049;SDS011;22263;52.260;10.548;2022-10-17T00:18:51;3.60;;;3.10;;
7049;SDS011;22263;52.260;10.548;2022-10-17T00:21:20;4.65;;;2.38;;
7049;SDS011;22263;52.260;10.548;2022-10-17T00:23:49;4.22;;;2.70;;
7049;SDS011;22263;52.260;10.548;2022-10-17T00:26:18;3.30;;;3.00;;
7049;SDS011;22263;52.260;10.548;2022-10-17T00:28:47;4.53;;;2.55;;
7049;SDS011;22263;52.260;10.548;2022-10-17T00:31:20;8.48;;;2.80;;
7049;SDS011;22263;52.260;10.548;2022-10-17T00:33:50;4.28;;;3.00;;
7049;SDS011;22263;52.260;10.548;2022-10-17T00:36:19;3.45;;;2.70;;
7049;SDS011;22263;52.260;10.548;2022-10-17T00:38:50;4.28;;;2.95;;
7049;SDS011;22263;52.260;10.548;2022-10-17T00:41:21;4.40;;;2.75;;
7049;SDS011;22263;52.260;10.548;2022-10-17T00:43:52;3.80;;;2.58;;
7049;SDS011;22263;52.260;10.548;2022-10-17T00:46:25;2.97;;;2.60;;
7049;SDS011;22263;52.260;10.548;2022-10-17T00:48:55;7.72;;;3.40;;
7049;SDS011;22263;52.260;10.548;2022-10-17T00:51:27;4.75;;;2.80;;
7049;SDS011;22263;52.260;10.548;2022-10-17T00:54:00;3.25;;;2.90;;
7049;SDS011;22263;52.260;10.548;2022-10-17T00:56:30;6.78;;;3.30;;
7049;SDS011;22263;52.260;10.548;2022-10-17T00:58:59;3.42;;;3.05;;
7049;SDS011;22263;52.260;10.548;2022-10-17T01:01:29;6.80;;;3.42;;
7049;SDS011;22263;52.260;10.548;2022-10-17T01:03:58;4.93;;;3.35;;
7049;SDS011;22263;52.260;10.548;2022-10-17T01:06:27;4.88;;;3.45;;
7049;SDS011;22263;52.260;10.548;2022-10-17T01:08:55;7.30;;;3.60;;
7049;SDS011;22263;52.260;10.548;2022-10-17T01:11:29;4.13;;;3.75;;
7049;SDS011;22263;52.260;10.548;2022-10-17T01:14:06;4.40;;;3.40;;
7049;SDS011;22263;52.260;10.548;2022-10-17T01:16:47;5.45;;;3.70;;
7049;SDS011;22263;52.260;10.548;2022-10-17T01:19:33;4.43;;;3.25;;
7049;SDS011;22263;52.260;10.548;2022-10-17T01:22:11;4.70;;;3.33;;
7049;SDS011;22263;52.260;10.548;2022-10-17T01:24:52;3.50;;;3.20;;
7049;SDS011;22263;52.260;10.548;2022-10-17T01:27:41;4.32;;;3.25;;
7049;SDS011;22263;52.260;10.548;2022-10-17T01:30:31;4.45;;;3.40;;
7049;SDS011;22263;52.260;10.548;2022-10-17T01:33:20;4.20;;;3.40;;
7049;SDS011;22263;52.260;10.548;2022-10-17T01:35:58;4.00;;;3.38;;
7049;SDS011;22263;52.260;10.548;2022-10-17T01:38:32;3.88;;;3.50;;
7049;SDS011;22263;52.260;10.548;2022-10-17T01:41:04;5.03;;;3.65;;
7049;SDS011;22263;52.260;10.548;2022-10-17T01:43:36;4.93;;;3.60;;
7049;SDS011;22263;52.260;10.548;2022-10-17T01:46:09;4.25;;;3.85;;
7049;SDS011;22263;52.260;10.548;2022-10-17T01:48:45;5.50;;;3.80;;
7049;SDS011;22263;52.260;10.548;2022-10-17T01:51:15;3.88;;;3.58;;
7049;SDS011;22263;52.260;10.548;2022-10-17T01:53:46;3.50;;;3.20;;
7049;SDS011;22263;52.260;10.548;2022-10-17T01:56:19;4.68;;;3.78;;
7049;SDS011;22263;52.260;10.548;2022-10-17T01:58:52;3.90;;;3.22;;
7049;SDS011;22263;52.260;10.548;2022-10-17T02:01:23;4.78;;;3.50;;
7049;SDS011;22263;52.260;10.548;2022-10-17T02:03:59;3.63;;;3.08;;
7049;SDS011;22263;52.260;10.548;2022-10-17T02:06:32;3.72;;;3.42;;
7049;SDS011;22263;52.260;10.548;2022-10-17T02:09:13;3.42;;;3.13;;
7049;SDS011;22263;52.260;10.548;2022-10-17T02:11:44;3.70;;;3.22;;
7049;SDS011;22263;52.260;10.548;2022-10-17T02:14:22;3.72;;;3.38;;
7049;SDS011;22263;52.260;10.548;2022-10-17T02:17:02;3.53;;;3.22;;
7049;SDS011;22263;52.260;10.548;2022-10-17T02:19:48;5.80;;;3.50;;
7049;SDS011;22263;52.260;10.548;2022-10-17T02:22:24;4.32;;;3.30;;
7049;SDS011;22263;52.260;10.548;2022-10-17T02:25:04;5.57;;;3.50;;
7049;SDS011;22263;52.260;10.548;2022-10-17T02:27:41;3.70;;;3.40;;
7049;SDS011;22263;52.260;10.548;2022-10-17T02:30:15;5.88;;;3.60;;
7049;SDS011;22263;52.260;10.548;2022-10-17T02:32:54;4.20;;;3.65;;
7049;SDS011;22263;52.260;10.548;2022-10-17T02:35:29;3.80;;;3.22;;
7049;SDS011;22263;52.260;10.548;2022-10-17T02:38:01;4.07;;;3.22;;
7049;SDS011;22263;52.260;10.548;2022-10-17T02:40:32;3.67;;;3.38;;
7049;SDS011;22263;52.260;10.548;2022-10-17T02:43:01;3.83;;;3.40;;
7049;SDS011;22263;52.260;10.548;2022-10-17T02:45:29;4.18;;;3.47;;
7049;SDS011;22263;52.260;10.548;2022-10-17T02:48:01;3.63;;;2.88;;
7049;SDS011;22263;52.260;10.548;2022-10-17T02:50:36;4.32;;;3.17;;
7049;SDS011;22263;52.260;10.548;2022-10-17T02:53:14;4.07;;;3.58;;
7049;SDS011;22263;52.260;10.548;2022-10-17T02:55:53;4.78;;;3.10;;
7049;SDS011;22263;52.260;10.548;2022-10-17T02:58:27;4.10;;;3.65;;
7049;SDS011;22263;52.260;10.548;2022-10-17T03:00:59;3.42;;;3.10;;
7049;SDS011;22263;52.260;10.548;2022-10-17T03:03:28;3.88;;;3.08;;
7049;SDS011;22263;52.260;10.548;2022-10-17T03:06:00;4.50;;;2.92;;
7049;SDS011;22263;52.260;10.548;2022-10-17T03:08:28;5.32;;;2.97;;
7049;SDS011;22263;52.260;10.548;2022-10-17T03:10:57;4.25;;;3.08;;
7049;SDS011;22263;52.260;10.548;2022-10-17T03:13:25;3.90;;;3.13;;
7049;SDS011;22263;52.260;10.548;2022-10-17T03:15:54;3.83;;;2.88;;
7049;SDS011;22263;52.260;10.548;2022-10-17T03:18:23;3.42;;;3.10;;
7049;SDS011;22263;52.260;10.548;2022-10-17T03:20:52;4.60;;;3.13;;
7049;SDS011;22263;52.260;10.548;2022-10-17T03:23:22;4.93;;;3.25;;
7049;SDS011;22263;52.260;10.548;2022-10-17T03:25:50;4.72;;;2.88;;
7049;SDS011;22263;52.260;10.548;2022-10-17T03:28:21;4.70;;;3.10;;
7049;SDS011;22263;52.260;10.548;2022-10-17T03:30:49;3.40;;;2.88;;
7049;SDS011;22263;52.260;10.548;2022-10-17T03:33:17;4.47;;;2.80;;
7049;SDS011;22263;52.260;10.548;2022-10-17T03:35:46;4.95;;;3.13;;
7049;SDS011;22263;52.260;10.548;2022-10-17T03:38:15;3.58;;;3.28;;
7049;SDS011;22263;52.260;10.548;2022-10-17T03:40:45;4.63;;;3.30;;
7049;SDS011;22263;52.260;10.548;2022-10-17T03:43:21;4.78;;;3.42;;
7049;SDS011;22263;52.260;10.548;2022-10-17T03:45:50;4.35;;;3.42;;
7049;SDS011;22263;52.260;10.548;2022-10-17T03:48:18;6.25;;;3.13;;
7049;SDS011;22263;52.260;10.548;2022-10-17T03:50:46;6.38;;;3.47;;
7049;SDS011;22263;52.260;10.548;2022-10-17T03:53:14;5.25;;;3.35;;
7049;SDS011;22263;52.260;10.548;2022-10-17T03:55:45;3.88;;;2.75;;
7049;SDS011;22263;52.260;10.548;2022-10-17T03:58:13;3.85;;;3.45;;
7049;SDS011;22263;52.260;10.548;2022-10-17T04:00:41;3.75;;;3.25;;
7049;SDS011;22263;52.260;10.548;2022-10-17T04:03:09;4.40;;;2.40;;
7049;SDS011;22263;52.260;10.548;2022-10-17T04:05:42;3.92;;;3.22;;
7049;SDS011;22263;52.260;10.548;2022-10-17T04:08:10;5.60;;;3.50;;
7049;SDS011;22263;52.260;10.548;2022-10-17T04:10:39;3.50;;;3.20;;
7049;SDS011;22263;52.260;10.548;2022-10-17T04:13:09;3.78;;;3.35;;
7049;SDS011;22263;52.260;10.548;2022-10-17T04:15:37;5.05;;;3.20;;
7049;SDS011;22263;52.260;10.548;2022-10-17T04:18:06;3.47;;;3.10;;
7049;SDS011;22263;52.260;10.548;2022-10-17T04:20:34;4.97;;;3.40;;
7049;SDS011;22263;52.260;10.548;2022-10-17T04:23:02;5.93;;;3.50;;
7049;SDS011;22263;52.260;10.548;2022-10-17T04:25:30;3.78;;;3.35;;
7049;SDS011;22263;52.260;10.548;2022-10-17T04:28:02;3.78;;;3.35;;
7049;SDS011;22263;52.260;10.548;2022-10-17T04:30:32;4.85;;;3.33;;
7049;SDS011;22263;52.260;10.548;2022-10-17T04:33:00;3.70;;;3.33;;
7049;SDS011;22263;52.260;10.548;2022-10-17T04:35:29;5.13;;;3.60;;
7049;SDS011;22263;52.260;10.548;2022-10-17T04:37:57;5.03;;;3.55;;
7049;SDS011;22263;52.260;10.548;2022-10-17T04:40:25;4.88;;;3.67;;
7049;SDS011;22263;52.260;10.548;2022-10-17T04:42:54;3.92;;;3.42;;
7049;SDS011;22263;52.260;10.548;2022-10-17T04:45:22;4.35;;;3.95;;
7049;SDS011;22263;52.260;10.548;2022-10-17T04:47:52;5.72;;;4.75;;
7049;SDS011;22263;52.260;10.548;2022-10-17T04:50:20;6.47;;;3.60;;
7049;SDS011;22263;52.260;10.548;2022-10-17T04:52:49;6.18;;;3.40;;
7049;SDS011;22263;52.260;10.548;2022-10-17T04:55:17;3.83;;;3.42;;
7049;SDS011;22263;52.260;10.548;2022-10-17T04:57:45;6.57;;;3.42;;
7049;SDS011;22263;52.260;10.548;2022-10-17T05:00:13;5.32;;;3.10;;
7049;SDS011;22263;52.260;10.548;2022-10-17T05:02:42;5.10;;;3.55;;
7049;SDS011;22263;52.260;10.548;2022-10-17T05:05:12;5.03;;;3.67;;
7049;SDS011;22263;52.260;10.548;2022-10-17T05:07:40;7.70;;;3.50;;
7049;SDS011;22263;52.260;10.548;2022-10-17T05:10:09;4.75;;;4.03;;
7049;SDS011;22263;52.260;10.548;2022-10-17T05:12:37;4.82;;;3.47;;
7049;SDS011;22263;52.260;10.548;2022-10-17T05:15:06;4.90;;;3.97;;
7049;SDS011;22263;52.260;10.548;2022-10-17T05:17:35;5.35;;;3.65;;
7049;SDS011;22263;52.260;10.548;2022-10-17T05:20:04;3.92;;;3.40;;
7049;SDS011;22263;52.260;10.548;2022-10-17T05:22:35;3.55;;;3.25;;
7049;SDS011;22263;52.260;10.548;2022-10-17T05:25:07;5.57;;;4.10;;
7049;SDS011;22263;52.260;10.548;2022-10-17T05:27:35;6.28;;;4.10;;
7049;SDS011;22263;52.260;10.548;2022-10-17T05:30:05;4.85;;;3.42;;
7049;SDS011;22263;52.260;10.548;2022-10-17T05:32:34;4.38;;;3.83;;
7049;SDS011;22263;52.260;10.548;2022-10-17T05:35:03;9.15;;;4.05;;
7049;SDS011;22263;52.260;10.548;2022-10-17T05:37:32;4.13;;;3.63;;
7049;SDS011;22263;52.260;10.548;2022-10-17T05:40:03;5.68;;;4.18;;
7049;SDS011;22263;52.260;10.548;2022-10-17T05:42:31;6.55;;;3.92;;
7049;SDS011;22263;52.260;10.548;2022-10-17T05:45:00;10.32;;;4.68;;
7049;SDS011;22263;52.260;10.548;2022-10-17T05:47:30;6.05;;;4.07;;
7049;SDS011;22263;52.260;10.548;2022-10-17T05:49:58;5.35;;;4.28;;
7049;SDS011;22263;52.260;10.548;2022-10-17T05:52:27;5.38;;;4.47;;
7049;SDS011;22263;52.260;10.548;2022-10-17T05:54:55;5.68;;;4.43;;
7049;SDS011;22263;52.260;10.548;2022-10-17T05:57:26;6.40;;;4.50;;
7049;SDS011;22263;52.260;10.548;2022-10-17T05:59:54;4.50;;;4.10;;
7049;SDS011;22263;52.260;10.548;2022-10-17T06:02:22;5.68;;;4.45;;
7049;SDS011;22263;52.260;10.548;2022-10-17T06:04:50;5.68;;;4.50;;
7049;SDS011;22263;52.260;10.548;2022-10-17T06:07:19;4.85;;;4.22;;
7049;SDS011;22263;52.260;10.548;2022-10-17T06:09:47;7.18;;;4.88;;
7049;SDS011;22263;52.260;10.548;2022-10-17T06:12:16;7.85;;;4.05;;
7049;SDS011;22263;52.260;10.548;2022-10-17T06:14:46;8.35;;;4.22;;
7049;SDS011;22263;52.260;10.548;2022-10-17T06:17:14;6.00;;;4.43;;
7049;SDS011;22263;52.260;10.548;2022-10-17T06:19:43;5.38;;;4.38;;
7049;SDS011;22263;52.260;10.548;2022-10-17T06:22:11;6.85;;;4.20;;
7049;SDS011;22263;52.260;10.548;2022-10-17T06:24:40;6.72;;;4.20;;
7049;SDS011;22263;52.260;10.548;2022-10-17T06:27:08;5.95;;;3.80;;
7049;SDS011;22263;52.260;10.548;2022-10-17T06:29:37;5.03;;;4.15;;
7049;SDS011;22263;52.260;10.548;2022-10-17T06:32:07;6.43;;;3.90;;
7049;SDS011;22263;52.260;10.548;2022-10-17T06:34:40;5.63;;;3.95;;
7049;SDS011;22263;52.260;10.548;2022-10-17T06:37:08;6.13;;;4.28;;
7049;SDS011;22263;52.260;10.548;2022-10-17T06:39:37;6.53;;;3.78;;
7049;SDS011;22263;52.260;10.548;2022-10-17T06:42:05;4.63;;;4.15;;
7049;SDS011;22263;52.260;10.548;2022-10-17T06:44:34;5.30;;;4.25;;
7049;SDS011;22263;52.260;10.548;2022-10-17T06:47:02;5.82;;;3.67;;
7049;SDS011;22263;52.260;10.548;2022-10-17T06:49:32;7.30;;;3.90;;
7049;SDS011;22263;52.260;10.548;2022-10-17T06:52:00;6.10;;;3.97;;
7049;SDS011;22263;52.260;10.548;2022-10-17T06:54:29;6.05;;;3.65;;
7049;SDS011;22263;52.260;10.548;2022-10-17T06:56:57;3.97;;;3.58;;
7049;SDS011;22263;52.260;10.548;2022-10-17T06:59:26;3.85;;;3.40;;
7049;SDS011;22263;52.260;10.548;2022-10-17T07:01:54;4.20;;;3.15;;
7049;SDS011;22263;52.260;10.548;2022-10-17T07:04:22;4.30;;;3.83;;
7049;SDS011;22263;52.260;10.548;2022-10-17T07:06:52;3.85;;;2.83;;
7049;SDS011;22263;52.260;10.548;2022-10-17T07:09:21;3.90;;;3.50;;
7049;SDS011;22263;52.260;10.548;2022-10-17T07:11:49;3.97;;;3.58;;
7049;SDS011;22263;52.260;10.548;2022-10-17T07:14:17;5.45;;;3.72;;
7049;SDS011;22263;52.260;10.548;2022-10-17T07:16:46;6.43;;;3.67;;
7049;SDS011;22263;52.260;10.548;2022-10-17T07:19:15;6.13;;;3.75;;
7049;SDS011;22263;52.260;10.548;2022-10-17T07:21:43;5.07;;;3.50;;
7049;SDS011;22263;52.260;10.548;2022-10-17T07:24:14;5.00;;;3.10;;
7049;SDS011;22263;52.260;10.548;2022-10-17T07:26:43;4.15;;;3.42;;
7049;SDS011;22263;52.260;10.548;2022-10-17T07:29:11;4.68;;;3.30;;
7049;SDS011;22263;52.260;10.548;2022-10-17T07:31:39;5.53;;;3.28;;
7049;SDS011;22263;52.260;10.548;2022-10-17T07:34:10;3.40;;;3.00;;
7049;SDS011;22263;52.260;10.548;2022-10-17T07:36:38;3.20;;;2.92;;
7049;SDS011;22263;52.260;10.548;2022-10-17T07:39:06;6.70;;;3.03;;
7049;SDS011;22263;52.260;10.548;2022-10-17T07:41:36;5.55;;;3.40;;
7049;SDS011;22263;52.260;10.548;2022-10-17T07:44:05;4.47;;;3.53;;
7049;SDS011;22263;52.260;10.548;2022-10-17T07:46:34;7.03;;;3.17;;
7049;SDS011;22263;52.260;10.548;2022-10-17T07:49:02;4.72;;;3.03;;
7049;SDS011;22263;52.260;10.548;2022-10-17T07:51:30;5.00;;;2.80;;
7049;SDS011;22263;52.260;10.548;2022-10-17T07:53:58;4.88;;;3.13;;
7049;SDS011;22263;52.260;10.548;2022-10-17T07:56:27;3.97;;;2.75;;
7049;SDS011;22263;52.260;10.548;2022-10-17T07:58:57;5.63;;;3.40;;
7049;SDS011;22263;52.260;10.548;2022-10-17T08:01:30;4.95;;;3.17;;
7049;SDS011;22263;52.260;10.548;2022-10-17T08:03:58;3.60;;;3.08;;
7049;SDS011;22263;52.260;10.548;2022-10-17T08:06:27;4.65;;;2.70;;
7049;SDS011;22263;52.260;10.548;2022-10-17T08:08:55;6.43;;;3.15;;
7049;SDS011;22263;52.260;10.548;2022-10-17T08:11:26;5.65;;;3.25;;
7049;SDS011;22263;52.260;10.548;2022-10-17T08:13:54;5.40;;;3.10;;
7049;SDS011;22263;52.260;10.548;2022-10-17T08:16:25;4.93;;;3.00;;
7049;SDS011;22263;52.260;10.548;2022-10-17T08:18:53;5.10;;;2.92;;
7049;SDS011;22263;52.260;10.548;2022-10-17T08:21:21;5.22;;;2.72;;
7049;SDS011;22263;52.260;10.548;2022-10-17T08:23:50;4.00;;;3.08;;
7049;SDS011;22263;52.260;10.548;2022-10-17T08:26:18;4.63;;;2.90;;
7049;SDS011;22263;52.260;10.548;2022-10-17T08:28:47;5.50;;;3.10;;
7049;SDS011;22263;52.260;10.548;2022-10-17T08:31:18;4.47;;;2.75;;
7049;SDS011;22263;52.260;10.548;2022-10-17T08:33:48;3.70;;;2.78;;
7049;SDS011;22263;52.260;10.548;2022-10-17T08:36:17;4.40;;;2.78;;
7049;SDS011;22263;52.260;10.548;2022-10-17T08:38:47;5.88;;;2.90;;
7049;SDS011;22263;52.260;10.548;2022-10-17T08:41:22;8.05;;;2.92;;
7049;SDS011;22263;52.260;10.548;2022-10-17T08:44:06;7.18;;;3.00;;
7049;SDS011;22263;52.260;10.548;2022-10-17T08:46:46;4.00;;;2.60;;
7049;SDS011;22263;52.260;10.548;2022-10-17T08:49:18;5.38;;;3.13;;
7049;SDS011;22263;52.260;10.548;2022-10-17T08:51:56;3.35;;;2.70;;
7049;SDS011;22263;52.260;10.548;2022-10-17T08:54:34;3.53;;;3.00;;
7049;SDS011;22263;52.260;10.548;2022-10-17T08:57:10;3.92;;;2.72;;
7049;SDS011;22263;52.260;10.548;2022-10-17T08:59:40;5.57;;;2.80;;
7049;SDS011;22263;52.260;10.548;2022-10-17T09:02:18;5.15;;;2.47;;
7049;SDS011;22263;52.260;10.548;2022-10-17T09:04:59;2.97;;;2.67;;
7049;SDS011;22263;52.260;10.548;2022-10-17T09:07:42;5.35;;;2.63;;
7049;SDS011;22263;52.260;10.548;2022-10-17T09:10:22;4.45;;;2.30;;
7049;SDS011;22263;52.260;10.548;2022-10-17T09:13:01;5.45;;;2.97;;
7049;SDS011;22263;52.260;10.548;2022-10-17T09:15:39;5.30;;;2.90;;
7049;SDS011;22263;52.260;10.548;2022-10-17T09:18:19;3.88;;;2.40;;
7049;SDS011;22263;52.260;10.548;2022-10-17T09:20:54;6.90;;;2.55;;
7049;SDS011;22263;52.260;10.548;2022-10-17T09:23:29;6.90;;;2.80;;
7049;SDS011;22263;52.260;10.548;2022-10-17T09:26:07;4.97;;;2.78;;
7049;SDS011;22263;52.260;10.548;2022-10-17T09:28:38;4.82;;;2.58;;
7049;SDS011;22263;52.260;10.548;2022-10-17T09:31:10;5.70;;;2.72;;
7049;SDS011;22263;52.260;10.548;2022-10-17T09:33:45;2.92;;;2.30;;
7049;SDS011;22263;52.260;10.548;2022-10-17T09:36:21;5.20;;;2.63;;
7049;SDS011;22263;52.260;10.548;2022-10-17T09:38:53;6.38;;;2.75;;
7049;SDS011;22263;52.260;10.548;2022-10-17T09:41:25;4.45;;;2.55;;
7049;SDS011;22263;52.260;10.548;2022-10-17T09:44:14;6.10;;;2.58;;
7049;SDS011;22263;52.260;10.548;2022-10-17T09:46:50;4.57;;;2.60;;
7049;SDS011;22263;52.260;10.548;2022-10-17T09:49:36;6.38;;;2.80;;
7049;SDS011;22263;52.260;10.548;2022-10-17T09:52:10;2.88;;;2.58;;
7049;SDS011;22263;52.260;10.548;2022-10-17T09:54:43;4.47;;;2.47;;
7049;SDS011;22263;52.260;10.548;2022-10-17T09:57:13;5.25;;;2.70;;
7049;SDS011;22263;52.260;10.548;2022-10-17T09:59:44;6.57;;;2.55;;
7049;SDS011;22263;52.260;10.548;2022-10-17T10:02:18;7.97;;;2.80;;
7049;SDS011;22263;52.260;10.548;2022-10-17T10:05:00;4.15;;;2.88;;
7049;SDS011;22263;52.260;10.548;2022-10-17T10:07:33;4.97;;;2.78;;
7049;SDS011;22263;52.260;10.548;2022-10-17T10:10:04;4.93;;;2.50;;
7049;SDS011;22263;52.260;10.548;2022-10-17T10:12:36;5.85;;;3.42;;
7049;SDS011;22263;52.260;10.548;2022-10-17T10:18:02;6.05;;;2.70;;
7049;SDS011;22263;52.260;10.548;2022-10-17T10:21:01;3.13;;;2.70;;
7049;SDS011;22263;52.260;10.548;2022-10-17T10:23:35;5.32;;;2.72;;
7049;SDS011;22263;52.260;10.548;2022-10-17T10:26:13;3.00;;;2.35;;
7049;SDS011;22263;52.260;10.548;2022-10-17T10:28:57;3.80;;;2.45;;
7049;SDS011;22263;52.260;10.548;2022-10-17T10:31:29;4.82;;;2.88;;
7049;SDS011;22263;52.260;10.548;2022-10-17T10:34:00;6.18;;;2.45;;
7049;SDS011;22263;52.260;10.548;2022-10-17T10:36:43;5.28;;;2.88;;
7049;SDS011;22263;52.260;10.548;2022-10-17T10:39:21;7.97;;;2.55;;
7049;SDS011;22263;52.260;10.548;2022-10-17T10:41:58;5.70;;;2.90;;
7049;SDS011;22263;52.260;10.548;2022-10-17T10:44:28;5.45;;;2.90;;
7049;SDS011;22263;52.260;10.548;2022-10-17T10:49:46;7.85;;;3.17;;
7049;SDS011;22263;52.260;10.548;2022-10-17T10:52:23;5.50;;;2.75;;
7049;SDS011;22263;52.260;10.548;2022-10-17T10:55:03;4.90;;;2.53;;
7049;SDS011;22263;52.260;10.548;2022-10-17T10:57:42;5.25;;;2.90;;
7049;SDS011;22263;52.260;10.548;2022-10-17T11:00:14;5.55;;;3.08;;
7049;SDS011;22263;52.260;10.548;2022-10-17T11:02:48;3.80;;;2.50;;
7049;SDS011;22263;52.260;10.548;2022-10-17T11:05:33;10.18;;;2.70;;
7049;SDS011;22263;52.260;10.548;2022-10-17T11:08:12;4.05;;;2.55;;
7049;SDS011;22263;52.260;10.548;2022-10-17T11:10:52;7.03;;;2.55;;
7049;SDS011;22263;52.260;10.548;2022-10-17T11:13:43;3.55;;;2.60;;
7049;SDS011;22263;52.260;10.548;2022-10-17T11:16:22;4.05;;;2.53;;
7049;SDS011;22263;52.260;10.548;2022-10-17T11:18:57;4.38;;;2.45;;
7049;SDS011;22263;52.260;10.548;2022-10-17T11:21:34;6.40;;;2.83;;
7049;SDS011;22263;52.260;10.548;2022-10-17T11:24:11;6.53;;;2.63;;
7049;SDS011;22263;52.260;10.548;2022-10-17T11:26:49;4.22;;;2.75;;
7049;SDS011;22263;52.260;10.548;2022-10-17T11:29:23;5.90;;;2.30;;
7049;SDS011;22263;52.260;10.548;2022-10-17T11:31:55;4.72;;;2.58;;
7049;SDS011;22263;52.260;10.548;2022-10-17T11:34:28;4.93;;;2.50;;
7049;SDS011;22263;52.260;10.548;2022-10-17T11:37:03;5.80;;;2.40;;
7049;SDS011;22263;52.260;10.548;2022-10-17T11:39:44;4.03;;;2.60;;
7049;SDS011;22263;52.260;10.548;2022-10-17T11:42:19;5.63;;;2.50;;
7049;SDS011;22263;52.260;10.548;2022-10-17T11:44:49;4.78;;;2.50;;
7049;SDS011;22263;52.260;10.548;2022-10-17T11:47:27;6.97;;;2.13;;
7049;SDS011;22263;52.260;10.548;2022-10-17T11:50:02;5.88;;;2.30;;
7049;SDS011;22263;52.260;10.548;2022-10-17T11:53:00;3.75;;;2.50;;
7049;SDS011;22263;52.260;10.548;2022-10-17T11:55:34;3.22;;;2.63;;
7049;SDS011;22263;52.260;10.548;2022-10-17T11:58:11;5.85;;;2.63;;
7049;SDS011;22263;52.260;10.548;2022-10-17T12:00:51;5.95;;;2.47;;
7049;SDS011;22263;52.260;10.548;2022-10-17T12:03:35;4.40;;;2.72;;
7049;SDS011;22263;52.260;10.548;2022-10-17T12:06:13;5.53;;;3.05;;
7049;SDS011;22263;52.260;10.548;2022-10-17T12:08:56;3.67;;;2.58;;
7049;SDS011;22263;52.260;10.548;2022-10-17T12:11:37;7.65;;;3.45;;
7049;SDS011;22263;52.260;10.548;2022-10-17T12:17:21;6.47;;;3.38;;
7049;SDS011;22263;52.260;10.548;2022-10-17T12:22:52;7.15;;;3.28;;
7049;SDS011;22263;52.260;10.548;2022-10-17T12:25:22;9.02;;;3.50;;
7049;SDS011;22263;52.260;10.548;2022-10-17T12:30:53;8.02;;;2.80;;
7049;SDS011;22263;52.260;10.548;2022-10-17T12:33:33;7.75;;;2.63;;
7049;SDS011;22263;52.260;10.548;2022-10-17T12:51:16;7.95;;;2.65;;
7049;SDS011;22263;52.260;10.548;2022-10-17T12:54:01;4.45;;;2.60;;
7049;SDS011;22263;52.260;10.548;2022-10-17T12:56:39;6.25;;;2.63;;
7049;SDS011;22263;52.260;10.548;2022-10-17T12:59:12;5.90;;;2.75;;
7049;SDS011;22263;52.260;10.548;2022-10-17T13:01:46;5.15;;;2.55;;
7049;SDS011;22263;52.260;10.548;2022-10-17T13:04:16;5.20;;;2.58;;
7049;SDS011;22263;52.260;10.548;2022-10-17T13:06:46;7.80;;;2.55;;
7049;SDS011;22263;52.260;10.548;2022-10-17T13:09:21;3.60;;;2.30;;
7049;SDS011;22263;52.260;10.548;2022-10-17T13:11:55;7.20;;;3.10;;
7049;SDS011;22263;52.260;10.548;2022-10-17T13:14:26;6.28;;;2.53;;
7049;SDS011;22263;52.260;10.548;2022-10-17T13:16:58;4.47;;;2.50;;
7049;SDS011;22263;52.260;10.548;2022-10-17T13:19:29;9.07;;;2.53;;
7049;SDS011;22263;52.260;10.548;2022-10-17T13:22:16;8.35;;;2.55;;
7049;SDS011;22263;52.260;10.548;2022-10-17T13:24:46;7.57;;;2.88;;
7049;SDS011;22263;52.260;10.548;2022-10-17T13:27:25;4.03;;;2.30;;
7049;SDS011;22263;52.260;10.548;2022-10-17T13:29:56;5.45;;;2.78;;
7049;SDS011;22263;52.260;10.548;2022-10-17T13:32:35;4.93;;;2.92;;
7049;SDS011;22263;52.260;10.548;2022-10-17T13:35:07;3.67;;;2.45;;
7049;SDS011;22263;52.260;10.548;2022-10-17T13:37:38;6.88;;;2.53;;
7049;SDS011;22263;52.260;10.548;2022-10-17T13:40:14;3.85;;;2.58;;
7049;SDS011;22263;52.260;10.548;2022-10-17T13:43:04;3.53;;;2.58;;
7049;SDS011;22263;52.260;10.548;2022-10-17T13:45:44;4.97;;;2.10;;
7049;SDS011;22263;52.260;10.548;2022-10-17T13:48:19;6.32;;;2.80;;
7049;SDS011;22263;52.260;10.548;2022-10-17T13:50:50;6.20;;;2.47;;
7049;SDS011;22263;52.260;10.548;2022-10-17T13:53:28;4.28;;;2.72;;
7049;SDS011;22263;52.260;10.548;2022-10-17T13:55:59;5.85;;;2.20;;
7049;SDS011;22263;52.260;10.548;2022-10-17T13:58:49;3.92;;;2.33;;
7049;SDS011;22263;52.260;10.548;2022-10-17T14:01:20;5.03;;;2.15;;
7049;SDS011;22263;52.260;10.548;2022-10-17T14:03:52;4.50;;;2.58;;
7049;SDS011;22263;52.260;10.548;2022-10-17T14:06:34;5.90;;;2.35;;
7049;SDS011;22263;52.260;10.548;2022-10-17T14:09:16;5.18;;;2.70;;
7049;SDS011;22263;52.260;10.548;2022-10-17T14:11:55;8.25;;;2.65;;
7049;SDS011;22263;52.260;10.548;2022-10-17T14:14:27;5.57;;;2.50;;
7049;SDS011;22263;52.260;10.548;2022-10-17T14:17:19;9.63;;;2.72;;
7049;SDS011;22263;52.260;10.548;2022-10-17T14:19:53;9.93;;;2.80;;
7049;SDS011;22263;52.260;10.548;2022-10-17T14:22:43;7.15;;;3.20;;
7049;SDS011;22263;52.260;10.548;2022-10-17T14:25:28;6.10;;;2.63;;
7049;SDS011;22263;52.260;10.548;2022-10-17T14:28:00;6.47;;;2.90;;
7049;SDS011;22263;52.260;10.548;2022-10-17T14:30:33;5.15;;;2.90;;
7049;SDS011;22263;52.260;10.548;2022-10-17T14:33:22;9.02;;;3.05;;
7049;SDS011;22263;52.260;10.548;2022-10-17T14:35:55;5.47;;;3.15;;
7049;SDS011;22263;52.260;10.548;2022-10-17T14:38:25;7.07;;;3.55;;
7049;SDS011;22263;52.260;10.548;2022-10-17T14:40:55;6.70;;;2.78;;
7049;SDS011;22263;52.260;10.548;2022-10-17T14:43:50;7.38;;;2.67;;
7049;SDS011;22263;52.260;10.548;2022-10-17T14:46:20;7.90;;;2.90;;
7049;SDS011;22263;52.260;10.548;2022-10-17T14:48:52;7.68;;;3.33;;
7049;SDS011;22263;52.260;10.548;2022-10-17T14:51:25;5.85;;;2.60;;
7049;SDS011;22263;52.260;10.548;2022-10-17T14:54:15;5.50;;;3.17;;
7049;SDS011;22263;52.260;10.548;2022-10-17T14:56:48;9.80;;;2.95;;
7049;SDS011;22263;52.260;10.548;2022-10-17T14:59:17;9.18;;;3.20;;
7049;SDS011;22263;52.260;10.548;2022-10-17T15:02:08;11.60;;;3.10;;
7049;SDS011;22263;52.260;10.548;2022-10-17T15:04:36;7.10;;;2.72;;
7049;SDS011;22263;52.260;10.548;2022-10-17T15:07:08;7.75;;;3.30;;
7049;SDS011;22263;52.260;10.548;2022-10-17T15:09:39;8.75;;;2.92;;
7049;SDS011;22263;52.260;10.548;2022-10-17T15:12:11;6.20;;;2.45;;
7049;SDS011;22263;52.260;10.548;2022-10-17T15:14:41;8.38;;;2.80;;
7049;SDS011;22263;52.260;10.548;2022-10-17T15:17:13;10.00;;;3.13;;
7049;SDS011;22263;52.260;10.548;2022-10-17T15:19:45;6.45;;;3.10;;
7049;SDS011;22263;52.260;10.548;2022-10-17T15:22:15;4.72;;;2.47;;
7049;SDS011;22263;52.260;10.548;2022-10-17T15:24:43;5.80;;;2.80;;
7049;SDS011;22263;52.260;10.548;2022-10-17T15:27:13;5.88;;;2.83;;
7049;SDS011;22263;52.260;10.548;2022-10-17T15:29:42;7.13;;;3.50;;
7049;SDS011;22263;52.260;10.548;2022-10-17T15:32:11;5.80;;;2.97;;
7049;SDS011;22263;52.260;10.548;2022-10-17T15:34:39;4.93;;;2.80;;
7049;SDS011;22263;52.260;10.548;2022-10-17T15:37:13;6.60;;;2.75;;
7049;SDS011;22263;52.260;10.548;2022-10-17T15:39:47;5.05;;;3.28;;
7049;SDS011;22263;52.260;10.548;2022-10-17T15:42:19;4.80;;;3.10;;
7049;SDS011;22263;52.260;10.548;2022-10-17T15:44:48;4.25;;;2.90;;
7049;SDS011;22263;52.260;10.548;2022-10-17T15:47:21;8.57;;;3.50;;
7049;SDS011;22263;52.260;10.548;2022-10-17T15:49:52;10.57;;;3.58;;
7049;SDS011;22263;52.260;10.548;2022-10-17T15:52:22;6.93;;;3.20;;